Historyczne dane pomiarowe

Dodano dane terminowe – wersja testowa.

Dane z okresu 1951-2019

Wersja bazy: 1.34 [2019-03-16, lista zmian], aktualizacja planowana na 2019-04-15

Dane meteo z obszaru Polski uzyskane na podstawie danych udostępnionych przez Instytut Meteorologii i Gospodarki Wodnej – Państwowy Instytut Badawczy.

 

Wybierz Datę:    

       

TemperaturaWilgotnośćWiatrCiśnienieOpadyŚniegCzas trwania zjawisk
 Stacja t tx tn tng RH VA  wxwx mslp ppp RRR   cm mm wxwxwxwxwxwxwx
2018-03-18 -7.4 -3.6-10.8 -9.6 54.5 1.9- 4.9--1013.5 975.7 0.0 0.0 0.0x- 9.8-------
2018-03-19 -6.1 -3.4 -9.6-11.5 66.8 2.6- 2.5--1013.6 976.0 0.0 0.0 0.0x- 0.7-------
2018-03-20 -3.7 -0.9 -5.7 -6.0 56.4 2.6- 1.9--1012.9 975.7 0.0 0.0 0.0x- 1.0-------
2018-03-21 -2.0 0.9 -4.3-11.0 64.0 3.4- 3.6--1023.8 986.4 0.0 0.0 0.0x- 6.7-------
2018-03-22 -0.6 5.7 -5.7 -9.3 55.9 3.1- 2.0--1018.0 981.0 0.0 0.0 0.0x- 9.1-------
2018-03-23 1.0 4.0 -1.4 -5.2 79.3 5.2- 1.5--1008.0 971.6 0.0 0.0 0.0x- 0.0-------
2018-03-24 2.9 7.5 0.0 -0.2 66.6 4.8- 1.6--1008.2 972.0 0.0 0.0 0.0x- 4.6-------
2018-03-25 3.3 9.5 -1.4 -4.5 64.8 4.8- 2.5--1011.4 975.1 0.0 0.0 0.0x- 11.2-------
2018-03-26 3.2 7.2 -2.1 -4.3 64.9 4.9- 1.9--1012.6 976.2 0.6 0.0 0.6x- 6.0-------
2018-03-27 0.9 4.7 -0.4 -0.6 91.0 6.0- 2.9--1014.7 978.0 0.3 0.3 0.0x- 0.0-------
2018-03-28 1.5--- 80.8 5.4- 2.1--1011.2 974.7 2.2 0.0 2.2x- 3.7-------
2018-03-29 4.9 8.9 2.4 1.7 77.4 6.7- 2.9--1005.8 969.9 0.3 0.3 0.0x- 1.4-------
2018-03-30 7.2 12.8 0.3 -3.0 57.5 5.5- 2.0--1010.2 974.4 0.0 0.0 0.0x- 9.7-------
2018-03-31 9.7 14.5 6.4 6.0 78.1 9.4- 2.5--1007.8 972.5 2.4 1.0 0.0x- 0.8-------
2018-04-01 2.9 12.1 1.1 1.4 88.4 6.8- 3.9--1008.7 972.5 0.9 0.0 0.9x- 0.0-------
2018-04-02 3.7 9.6 0.1 -0.1 67.5 5.2- 3.5--1008.6 972.5 0.0 0.0 0.0x- 5.7-------
2018-04-03 9.6 17.8 0.9 -0.2 55.3 6.4- 3.0--1009.4 974.0 0.0 0.0 0.0x- 5.9-------
2018-04-04 13.1 19.4 6.7 5.2 54.1 8.0- 2.8--1008.2 973.3 0.0 0.0 0.0x- 6.0-------
2018-04-05 13.3 19.0 8.6 6.4 55.6 8.2- 2.4--1008.7 973.8 0.0 0.0 0.0x- 6.8-------
2018-04-06 7.3 14.1 4.4 3.5 55.5 5.5- 3.8--1022.7 986.5 0.0 0.0 0.0x- 8.0-------
2018-04-07 9.8 16.9 1.4 -1.8 47.0 5.7- 2.8--1024.3 988.4 0.0 0.0 0.0x- 11.7-------
2018-04-08 15.7 22.8 7.3 4.6 51.8 8.5- 3.0--1018.1 983.1 0.0 0.0 0.0x- 10.8-------
2018-04-09 18.2 25.3 10.5 9.6 41.6 8.2- 3.4--1010.2 975.8 0.0 0.0 0.0x- 11.6-------
2018-04-10 16.3 22.5 11.2 8.5 47.5 8.5- 2.3--1009.1 974.5 0.0 0.0 0.0x- 9.5-------
2018-04-11 15.7 21.0 9.9 5.4 48.4 8.4- 1.5--1010.4 975.7 0.0 0.0 0.0x- 8.6-------
2018-04-12 17.5 24.8 9.1 7.0 55.4 10.2- 3.0--1010.1 975.6 0.0 0.0 0.0x- 11.3-------
2018-04-13 15.9 23.1 12.2 11.8 70.1 12.3- 2.3--1011.4 976.6 0.7 0.7 0.0x- 7.7-------
2018-04-14 14.5 19.8 9.2 6.0 56.5 9.0- 1.9--1020.6 985.4 0.0 0.0 0.0x- 10.8-------
2018-04-15 17.4 23.8 9.0 5.0 49.5 9.2- 2.3--1017.3 982.6 0.0 0.0 0.0x- 9.6-------
2018-04-16 17.7 23.0 14.7 14.2 62.8 12.5- 2.1--1012.7 978.2 0.4 0.4 0.0x- 2.3-------
99.5 ms

 

Źródłem pochodzenia danych jest Instytut Meteorologii i Gospodarki Wodnej – Państwowy Instytut Badawczy. Dane Instytutu Meteorologii i Gospodarki Wodnej – Państwowego Instytutu Badawczego zostały przetworzone.

Dane źródłowe można odnaleźć na stronie https://dane.imgw.pl